Pittsburgh, Pennsylvania
Traffic Map
Current Weather Conditions
Pittsburgh, Pennsylvania
Clear
Clear
38°
Feels Like: 33°
Wind Chill: 33° Ceiling: Unl
Heat Index: 38° Visibility: 10mi
Dew Point: 12° Wind: 7mph
Humidity: 35% Direction: 320° (NW)
Pressure: 30.08in Gusts: 0mph
Raw Report DataKAGC 240553Z AUTO 32006KT 10SM CLR 03/M11 A3008 RMK AO2 SLP200 T00331111 10089 20033 51004 TSNO
Traffic Incident Summary
Active as of:
Severity:
Category:
InformationThere was an issue retrieving the traffic information for this location. Please try a different location or try again shortly.
Advertisements
At Last! Intellicast now available for iPhone and Android